Terminal Aerodrome Forecast
Issued by NWS Portland, OR

Home | Current Version | Previous Version | Text Only | Print | Product List | Glossary On
Versions: 1 2 3 4 5 6 7 8 9 10 11 12 13 14 15 16 17 18 19 20 21 22 23 24 25 26
519
FTUS46 KPQR 262326
TAFHIO
TAF
KHIO 262326Z 2700/2724 34008KT P6SM SKC
     FM270700 32004KT P6SM SKC
     FM271000 00000KT P6SM SKC
     FM271900 35005KT P6SM SKC=

USA.gov is the U.S. government's official web portal to all federal, state and local government web resources and services.